sensor_id;sensor_type;location;lat;lon;timestamp;temperature;humidity
17495;DHT22;8864;51.970;4.614;2023-03-01T00:00:03;15.00;68.70
17495;DHT22;8864;51.970;4.614;2023-03-01T00:02:30;15.00;68.60
17495;DHT22;8864;51.970;4.614;2023-03-01T00:04:59;15.00;68.70
17495;DHT22;8864;51.970;4.614;2023-03-01T00:07:28;15.00;68.60
17495;DHT22;8864;51.970;4.614;2023-03-01T00:09:56;15.00;68.50
17495;DHT22;8864;51.970;4.614;2023-03-01T00:12:25;15.00;68.60
17495;DHT22;8864;51.970;4.614;2023-03-01T00:14:53;15.00;68.50
17495;DHT22;8864;51.970;4.614;2023-03-01T00:17:23;15.00;68.60
17495;DHT22;8864;51.970;4.614;2023-03-01T00:19:51;15.00;68.60
17495;DHT22;8864;51.970;4.614;2023-03-01T00:22:18;15.00;68.60
17495;DHT22;8864;51.970;4.614;2023-03-01T00:24:45;15.00;68.60
17495;DHT22;8864;51.970;4.614;2023-03-01T00:27:15;15.00;68.50
17495;DHT22;8864;51.970;4.614;2023-03-01T00:29:42;15.00;68.60
17495;DHT22;8864;51.970;4.614;2023-03-01T00:32:12;15.00;68.50
17495;DHT22;8864;51.970;4.614;2023-03-01T00:34:44;15.00;68.60
17495;DHT22;8864;51.970;4.614;2023-03-01T00:37:20;15.00;68.60
17495;DHT22;8864;51.970;4.614;2023-03-01T00:39:47;15.00;68.60
17495;DHT22;8864;51.970;4.614;2023-03-01T00:42:30;15.00;68.40
17495;DHT22;8864;51.970;4.614;2023-03-01T00:44:57;15.00;68.60
17495;DHT22;8864;51.970;4.614;2023-03-01T00:47:25;15.00;68.30
17495;DHT22;8864;51.970;4.614;2023-03-01T00:49:53;15.00;68.70
17495;DHT22;8864;51.970;4.614;2023-03-01T00:52:20;15.00;69.00
17495;DHT22;8864;51.970;4.614;2023-03-01T00:54:52;14.90;69.10
17495;DHT22;8864;51.970;4.614;2023-03-01T00:57:19;14.90;69.10
17495;DHT22;8864;51.970;4.614;2023-03-01T00:59:47;14.90;69.00
17495;DHT22;8864;51.970;4.614;2023-03-01T01:02:16;14.90;69.10
17495;DHT22;8864;51.970;4.614;2023-03-01T01:04:46;14.90;69.10
17495;DHT22;8864;51.970;4.614;2023-03-01T01:07:27;14.90;69.00
17495;DHT22;8864;51.970;4.614;2023-03-01T01:09:57;14.90;69.00
17495;DHT22;8864;51.970;4.614;2023-03-01T01:12:27;14.90;69.00
17495;DHT22;8864;51.970;4.614;2023-03-01T01:14:55;14.90;68.90
17495;DHT22;8864;51.970;4.614;2023-03-01T01:17:22;14.90;68.80
17495;DHT22;8864;51.970;4.614;2023-03-01T01:19:49;14.90;68.90
17495;DHT22;8864;51.970;4.614;2023-03-01T01:22:17;14.90;68.70
17495;DHT22;8864;51.970;4.614;2023-03-01T01:24:45;14.90;68.80
17495;DHT22;8864;51.970;4.614;2023-03-01T01:27:12;14.90;68.90
17495;DHT22;8864;51.970;4.614;2023-03-01T01:29:58;14.90;68.70
17495;DHT22;8864;51.970;4.614;2023-03-01T01:32:27;14.90;68.80
17495;DHT22;8864;51.970;4.614;2023-03-01T01:34:55;14.90;68.90
17495;DHT22;8864;51.970;4.614;2023-03-01T01:37:22;14.90;68.80
17495;DHT22;8864;51.970;4.614;2023-03-01T01:40:00;14.90;68.90
17495;DHT22;8864;51.970;4.614;2023-03-01T01:42:32;14.90;68.90
17495;DHT22;8864;51.970;4.614;2023-03-01T01:45:26;14.90;68.90
17495;DHT22;8864;51.970;4.614;2023-03-01T01:47:56;14.90;68.90
17495;DHT22;8864;51.970;4.614;2023-03-01T01:50:24;14.90;68.80
17495;DHT22;8864;51.970;4.614;2023-03-01T01:52:53;14.90;68.80
17495;DHT22;8864;51.970;4.614;2023-03-01T01:55:31;14.90;68.80
17495;DHT22;8864;51.970;4.614;2023-03-01T01:58:02;14.90;68.90
17495;DHT22;8864;51.970;4.614;2023-03-01T02:00:30;14.90;68.80
17495;DHT22;8864;51.970;4.614;2023-03-01T02:03:00;14.90;68.70
17495;DHT22;8864;51.970;4.614;2023-03-01T02:05:37;14.90;68.80
17495;DHT22;8864;51.970;4.614;2023-03-01T02:08:05;14.90;68.70
17495;DHT22;8864;51.970;4.614;2023-03-01T02:10:37;14.90;68.70
17495;DHT22;8864;51.970;4.614;2023-03-01T02:13:06;14.80;68.60
17495;DHT22;8864;51.970;4.614;2023-03-01T02:15:37;14.80;68.70
17495;DHT22;8864;51.970;4.614;2023-03-01T02:18:08;14.90;68.70
17495;DHT22;8864;51.970;4.614;2023-03-01T02:20:43;14.90;68.80
17495;DHT22;8864;51.970;4.614;2023-03-01T02:23:12;14.90;68.80
17495;DHT22;8864;51.970;4.614;2023-03-01T02:25:47;14.90;68.70
17495;DHT22;8864;51.970;4.614;2023-03-01T02:28:32;14.80;68.70
17495;DHT22;8864;51.970;4.614;2023-03-01T02:31:03;14.80;68.80
17495;DHT22;8864;51.970;4.614;2023-03-01T02:33:49;14.80;68.70
17495;DHT22;8864;51.970;4.614;2023-03-01T02:36:20;14.80;68.80
17495;DHT22;8864;51.970;4.614;2023-03-01T02:38:51;14.80;68.80
17495;DHT22;8864;51.970;4.614;2023-03-01T02:41:22;14.80;68.80
17495;DHT22;8864;51.970;4.614;2023-03-01T02:43:55;14.80;68.60
17495;DHT22;8864;51.970;4.614;2023-03-01T02:46:23;14.80;68.70
17495;DHT22;8864;51.970;4.614;2023-03-01T02:48:53;14.80;68.70
17495;DHT22;8864;51.970;4.614;2023-03-01T02:51:31;14.80;68.90
17495;DHT22;8864;51.970;4.614;2023-03-01T02:54:09;14.80;68.90
17495;DHT22;8864;51.970;4.614;2023-03-01T02:56:41;14.80;68.90
17495;DHT22;8864;51.970;4.614;2023-03-01T02:59:11;14.80;68.90
17495;DHT22;8864;51.970;4.614;2023-03-01T03:01:47;14.80;69.00
17495;DHT22;8864;51.970;4.614;2023-03-01T03:04:16;14.80;68.90
17495;DHT22;8864;51.970;4.614;2023-03-01T03:06:52;14.80;69.00
17495;DHT22;8864;51.970;4.614;2023-03-01T03:09:19;14.80;69.00
17495;DHT22;8864;51.970;4.614;2023-03-01T03:11:46;14.80;68.90
17495;DHT22;8864;51.970;4.614;2023-03-01T03:14:17;14.80;68.80
17495;DHT22;8864;51.970;4.614;2023-03-01T03:16:49;14.80;68.90
17495;DHT22;8864;51.970;4.614;2023-03-01T03:19:16;14.80;68.90
17495;DHT22;8864;51.970;4.614;2023-03-01T03:21:46;14.80;68.90
17495;DHT22;8864;51.970;4.614;2023-03-01T03:24:17;14.80;68.70
17495;DHT22;8864;51.970;4.614;2023-03-01T03:26:44;14.80;68.70
17495;DHT22;8864;51.970;4.614;2023-03-01T03:29:11;14.80;68.80
17495;DHT22;8864;51.970;4.614;2023-03-01T03:31:40;14.80;68.70
17495;DHT22;8864;51.970;4.614;2023-03-01T03:34:10;14.80;68.70
17495;DHT22;8864;51.970;4.614;2023-03-01T03:36:43;14.80;68.60
17495;DHT22;8864;51.970;4.614;2023-03-01T03:39:10;14.80;68.70
17495;DHT22;8864;51.970;4.614;2023-03-01T03:41:37;14.80;68.60
17495;DHT22;8864;51.970;4.614;2023-03-01T03:44:07;14.80;68.60
17495;DHT22;8864;51.970;4.614;2023-03-01T03:46:34;14.80;68.70
17495;DHT22;8864;51.970;4.614;2023-03-01T03:49:03;14.80;68.70
17495;DHT22;8864;51.970;4.614;2023-03-01T03:51:34;14.80;68.70
17495;DHT22;8864;51.970;4.614;2023-03-01T03:54:06;14.80;68.70
17495;DHT22;8864;51.970;4.614;2023-03-01T03:56:35;14.70;68.70
17495;DHT22;8864;51.970;4.614;2023-03-01T03:59:03;14.70;68.60
17495;DHT22;8864;51.970;4.614;2023-03-01T04:01:35;14.70;68.70
17495;DHT22;8864;51.970;4.614;2023-03-01T04:04:04;14.80;68.70
17495;DHT22;8864;51.970;4.614;2023-03-01T04:06:33;14.80;68.60
17495;DHT22;8864;51.970;4.614;2023-03-01T04:09:00;14.80;68.60
17495;DHT22;8864;51.970;4.614;2023-03-01T04:11:28;14.80;68.60
17495;DHT22;8864;51.970;4.614;2023-03-01T04:13:57;14.80;68.60
17495;DHT22;8864;51.970;4.614;2023-03-01T04:16:25;14.80;68.70
17495;DHT22;8864;51.970;4.614;2023-03-01T04:18:53;14.70;68.60
17495;DHT22;8864;51.970;4.614;2023-03-01T04:21:21;14.70;68.60
17495;DHT22;8864;51.970;4.614;2023-03-01T04:23:48;14.70;68.60
17495;DHT22;8864;51.970;4.614;2023-03-01T04:26:21;14.70;68.60
17495;DHT22;8864;51.970;4.614;2023-03-01T04:28:49;14.70;68.50
17495;DHT22;8864;51.970;4.614;2023-03-01T04:31:19;14.70;68.30
17495;DHT22;8864;51.970;4.614;2023-03-01T04:33:47;14.70;68.20
17495;DHT22;8864;51.970;4.614;2023-03-01T04:36:16;14.70;68.10
17495;DHT22;8864;51.970;4.614;2023-03-01T04:38:46;14.70;68.10
17495;DHT22;8864;51.970;4.614;2023-03-01T04:41:15;14.70;68.10
17495;DHT22;8864;51.970;4.614;2023-03-01T04:43:44;14.70;68.00
17495;DHT22;8864;51.970;4.614;2023-03-01T04:46:19;14.70;68.00
17495;DHT22;8864;51.970;4.614;2023-03-01T04:48:47;14.70;67.90
17495;DHT22;8864;51.970;4.614;2023-03-01T04:51:14;14.70;67.90
17495;DHT22;8864;51.970;4.614;2023-03-01T04:53:42;14.70;67.90
17495;DHT22;8864;51.970;4.614;2023-03-01T04:56:20;14.70;67.80
17495;DHT22;8864;51.970;4.614;2023-03-01T04:58:49;14.70;67.80
17495;DHT22;8864;51.970;4.614;2023-03-01T05:01:19;14.70;67.80
17495;DHT22;8864;51.970;4.614;2023-03-01T05:03:54;14.70;67.80
17495;DHT22;8864;51.970;4.614;2023-03-01T05:06:28;14.70;67.80
17495;DHT22;8864;51.970;4.614;2023-03-01T05:08:55;14.70;67.80
17495;DHT22;8864;51.970;4.614;2023-03-01T05:11:24;14.70;67.80
17495;DHT22;8864;51.970;4.614;2023-03-01T05:13:55;14.70;67.80
17495;DHT22;8864;51.970;4.614;2023-03-01T05:16:24;14.70;68.00
17495;DHT22;8864;51.970;4.614;2023-03-01T05:18:51;14.70;67.80
17495;DHT22;8864;51.970;4.614;2023-03-01T05:21:18;14.70;67.80
17495;DHT22;8864;51.970;4.614;2023-03-01T05:23:45;14.70;67.70
17495;DHT22;8864;51.970;4.614;2023-03-01T05:26:12;14.70;67.80
17495;DHT22;8864;51.970;4.614;2023-03-01T05:28:49;14.70;67.80
17495;DHT22;8864;51.970;4.614;2023-03-01T05:31:17;14.70;67.80
17495;DHT22;8864;51.970;4.614;2023-03-01T05:33:49;14.70;67.80
17495;DHT22;8864;51.970;4.614;2023-03-01T05:36:16;14.60;67.80
17495;DHT22;8864;51.970;4.614;2023-03-01T05:38:43;14.70;67.80
17495;DHT22;8864;51.970;4.614;2023-03-01T05:41:17;14.70;67.80
17495;DHT22;8864;51.970;4.614;2023-03-01T05:43:44;14.70;67.80
17495;DHT22;8864;51.970;4.614;2023-03-01T05:46:13;14.60;67.90
17495;DHT22;8864;51.970;4.614;2023-03-01T05:48:41;14.70;67.90
17495;DHT22;8864;51.970;4.614;2023-03-01T05:51:09;14.70;67.90
17495;DHT22;8864;51.970;4.614;2023-03-01T05:53:40;14.60;67.80
17495;DHT22;8864;51.970;4.614;2023-03-01T05:56:10;14.70;68.00
17495;DHT22;8864;51.970;4.614;2023-03-01T05:58:38;14.70;68.40
17495;DHT22;8864;51.970;4.614;2023-03-01T06:01:12;14.60;68.20
17495;DHT22;8864;51.970;4.614;2023-03-01T06:03:39;14.60;68.00
17495;DHT22;8864;51.970;4.614;2023-03-01T06:06:06;14.60;68.00
17495;DHT22;8864;51.970;4.614;2023-03-01T06:08:34;14.60;68.00
17495;DHT22;8864;51.970;4.614;2023-03-01T06:11:03;14.60;68.00
17495;DHT22;8864;51.970;4.614;2023-03-01T06:13:31;14.60;68.00
17495;DHT22;8864;51.970;4.614;2023-03-01T06:15:58;14.60;68.60
17495;DHT22;8864;51.970;4.614;2023-03-01T06:18:27;14.60;67.80
17495;DHT22;8864;51.970;4.614;2023-03-01T06:20:56;14.60;67.90
17495;DHT22;8864;51.970;4.614;2023-03-01T06:23:24;14.60;67.80
17495;DHT22;8864;51.970;4.614;2023-03-01T06:25:51;14.60;67.90
17495;DHT22;8864;51.970;4.614;2023-03-01T06:28:23;14.60;68.00
17495;DHT22;8864;51.970;4.614;2023-03-01T06:30:51;14.60;68.00
17495;DHT22;8864;51.970;4.614;2023-03-01T06:33:21;14.60;68.00
17495;DHT22;8864;51.970;4.614;2023-03-01T06:35:51;14.60;68.00
17495;DHT22;8864;51.970;4.614;2023-03-01T06:38:20;14.60;68.00
17495;DHT22;8864;51.970;4.614;2023-03-01T06:40:52;14.60;69.10
17495;DHT22;8864;51.970;4.614;2023-03-01T06:43:22;14.60;69.20
17495;DHT22;8864;51.970;4.614;2023-03-01T06:45:51;14.60;68.80
17495;DHT22;8864;51.970;4.614;2023-03-01T06:48:18;14.60;68.50
17495;DHT22;8864;51.970;4.614;2023-03-01T06:50:54;14.60;68.30
17495;DHT22;8864;51.970;4.614;2023-03-01T06:53:24;14.60;68.10
17495;DHT22;8864;51.970;4.614;2023-03-01T06:55:55;14.60;68.00
17495;DHT22;8864;51.970;4.614;2023-03-01T06:58:23;14.60;67.70
17495;DHT22;8864;51.970;4.614;2023-03-01T07:00:53;14.60;67.50
17495;DHT22;8864;51.970;4.614;2023-03-01T07:03:21;14.60;67.50
17495;DHT22;8864;51.970;4.614;2023-03-01T07:05:51;14.60;67.40
17495;DHT22;8864;51.970;4.614;2023-03-01T07:08:29;14.60;67.30
17495;DHT22;8864;51.970;4.614;2023-03-01T07:10:57;14.60;67.20
17495;DHT22;8864;51.970;4.614;2023-03-01T07:13:24;14.60;67.10
17495;DHT22;8864;51.970;4.614;2023-03-01T07:15:58;14.60;67.00
17495;DHT22;8864;51.970;4.614;2023-03-01T07:18:26;14.60;66.90
17495;DHT22;8864;51.970;4.614;2023-03-01T07:20:53;14.60;66.80
17495;DHT22;8864;51.970;4.614;2023-03-01T07:23:22;14.60;66.70
17495;DHT22;8864;51.970;4.614;2023-03-01T07:25:53;14.60;66.60
17495;DHT22;8864;51.970;4.614;2023-03-01T07:28:20;14.60;66.40
17495;DHT22;8864;51.970;4.614;2023-03-01T07:30:49;14.60;66.40
17495;DHT22;8864;51.970;4.614;2023-03-01T07:33:18;14.60;66.30
17495;DHT22;8864;51.970;4.614;2023-03-01T07:35:48;14.60;66.20
17495;DHT22;8864;51.970;4.614;2023-03-01T07:38:23;14.60;66.10
17495;DHT22;8864;51.970;4.614;2023-03-01T07:40:50;14.60;66.10
17495;DHT22;8864;51.970;4.614;2023-03-01T07:43:17;14.60;65.90
17495;DHT22;8864;51.970;4.614;2023-03-01T07:45:47;14.60;65.80
17495;DHT22;8864;51.970;4.614;2023-03-01T07:48:17;14.60;65.80
17495;DHT22;8864;51.970;4.614;2023-03-01T07:50:44;14.60;65.80
17495;DHT22;8864;51.970;4.614;2023-03-01T07:53:11;14.60;65.90
17495;DHT22;8864;51.970;4.614;2023-03-01T07:55:39;14.60;66.20
17495;DHT22;8864;51.970;4.614;2023-03-01T07:58:09;14.60;66.40
17495;DHT22;8864;51.970;4.614;2023-03-01T08:00:37;14.60;66.40
17495;DHT22;8864;51.970;4.614;2023-03-01T08:03:08;14.60;67.20
17495;DHT22;8864;51.970;4.614;2023-03-01T08:05:35;14.60;68.10
17495;DHT22;8864;51.970;4.614;2023-03-01T08:08:04;14.60;68.00
17495;DHT22;8864;51.970;4.614;2023-03-01T08:10:36;14.70;67.80
17495;DHT22;8864;51.970;4.614;2023-03-01T08:13:07;14.70;68.70
17495;DHT22;8864;51.970;4.614;2023-03-01T08:15:35;14.70;68.90
17495;DHT22;8864;51.970;4.614;2023-03-01T08:18:02;14.70;68.90
17495;DHT22;8864;51.970;4.614;2023-03-01T08:20:30;14.80;69.30
17495;DHT22;8864;51.970;4.614;2023-03-01T08:23:06;14.80;69.30
17495;DHT22;8864;51.970;4.614;2023-03-01T08:25:33;14.80;69.00
17495;DHT22;8864;51.970;4.614;2023-03-01T08:28:06;14.80;69.20
17495;DHT22;8864;51.970;4.614;2023-03-01T08:30:34;14.80;69.00
17495;DHT22;8864;51.970;4.614;2023-03-01T08:33:01;14.90;69.30
17495;DHT22;8864;51.970;4.614;2023-03-01T08:35:30;14.90;69.60
17495;DHT22;8864;51.970;4.614;2023-03-01T08:37:59;14.90;70.00
17495;DHT22;8864;51.970;4.614;2023-03-01T08:40:27;15.00;70.40
17495;DHT22;8864;51.970;4.614;2023-03-01T08:42:54;15.00;70.20
17495;DHT22;8864;51.970;4.614;2023-03-01T08:45:22;15.10;69.90
17495;DHT22;8864;51.970;4.614;2023-03-01T08:47:53;15.10;69.60
17495;DHT22;8864;51.970;4.614;2023-03-01T08:50:21;15.10;69.40
17495;DHT22;8864;51.970;4.614;2023-03-01T08:52:50;15.00;69.30
17495;DHT22;8864;51.970;4.614;2023-03-01T08:55:22;15.10;69.60
17495;DHT22;8864;51.970;4.614;2023-03-01T08:57:49;15.10;69.30
17495;DHT22;8864;51.970;4.614;2023-03-01T09:00:17;15.10;69.20
17495;DHT22;8864;51.970;4.614;2023-03-01T09:02:47;15.10;69.40
17495;DHT22;8864;51.970;4.614;2023-03-01T09:05:14;15.10;69.20
17495;DHT22;8864;51.970;4.614;2023-03-01T09:07:42;15.10;69.00
17495;DHT22;8864;51.970;4.614;2023-03-01T09:10:10;15.10;69.80
17495;DHT22;8864;51.970;4.614;2023-03-01T09:12:37;15.10;69.00
17495;DHT22;8864;51.970;4.614;2023-03-01T09:15:05;15.10;69.00
17495;DHT22;8864;51.970;4.614;2023-03-01T09:17:32;15.10;69.00
17495;DHT22;8864;51.970;4.614;2023-03-01T09:20:00;15.10;69.00
17495;DHT22;8864;51.970;4.614;2023-03-01T09:22:35;15.10;69.20
17495;DHT22;8864;51.970;4.614;2023-03-01T09:25:03;15.10;69.30
17495;DHT22;8864;51.970;4.614;2023-03-01T09:27:30;15.20;69.20
17495;DHT22;8864;51.970;4.614;2023-03-01T09:29:57;15.20;69.20
17495;DHT22;8864;51.970;4.614;2023-03-01T09:32:24;15.10;69.10
17495;DHT22;8864;51.970;4.614;2023-03-01T09:34:51;15.10;69.10
17495;DHT22;8864;51.970;4.614;2023-03-01T09:37:37;15.20;69.20
17495;DHT22;8864;51.970;4.614;2023-03-01T09:40:09;15.20;69.20
17495;DHT22;8864;51.970;4.614;2023-03-01T09:42:47;15.20;69.20
17495;DHT22;8864;51.970;4.614;2023-03-01T09:45:26;15.20;69.20
17495;DHT22;8864;51.970;4.614;2023-03-01T09:47:58;15.20;69.20
17495;DHT22;8864;51.970;4.614;2023-03-01T09:50:30;15.20;69.20
17495;DHT22;8864;51.970;4.614;2023-03-01T09:53:03;15.20;69.20
17495;DHT22;8864;51.970;4.614;2023-03-01T09:55:40;15.20;69.30
17495;DHT22;8864;51.970;4.614;2023-03-01T09:58:30;15.20;69.30
17495;DHT22;8864;51.970;4.614;2023-03-01T10:01:10;15.20;69.30
17495;DHT22;8864;51.970;4.614;2023-03-01T10:03:58;15.20;69.30
17495;DHT22;8864;51.970;4.614;2023-03-01T10:06:26;15.20;69.30
17495;DHT22;8864;51.970;4.614;2023-03-01T10:08:57;15.20;69.30
17495;DHT22;8864;51.970;4.614;2023-03-01T10:11:28;15.30;69.80
17495;DHT22;8864;51.970;4.614;2023-03-01T10:14:09;15.30;69.20
17495;DHT22;8864;51.970;4.614;2023-03-01T10:16:48;15.30;68.40
17495;DHT22;8864;51.970;4.614;2023-03-01T10:19:20;15.30;68.70
17495;DHT22;8864;51.970;4.614;2023-03-01T10:21:53;15.20;67.50
17495;DHT22;8864;51.970;4.614;2023-03-01T10:24:22;15.20;67.00
17495;DHT22;8864;51.970;4.614;2023-03-01T10:26:54;15.20;66.80
17495;DHT22;8864;51.970;4.614;2023-03-01T10:29:30;15.20;67.00
17495;DHT22;8864;51.970;4.614;2023-03-01T10:32:00;15.20;66.20
17495;DHT22;8864;51.970;4.614;2023-03-01T10:34:29;15.20;65.50
17495;DHT22;8864;51.970;4.614;2023-03-01T10:37:01;15.20;65.00
17495;DHT22;8864;51.970;4.614;2023-03-01T10:39:55;15.20;64.90
17495;DHT22;8864;51.970;4.614;2023-03-01T10:42:32;15.20;65.10
17495;DHT22;8864;51.970;4.614;2023-03-01T10:45:15;15.20;64.10
17495;DHT22;8864;51.970;4.614;2023-03-01T10:47:43;15.20;64.00
17495;DHT22;8864;51.970;4.614;2023-03-01T10:50:22;15.10;63.90
17495;DHT22;8864;51.970;4.614;2023-03-01T10:52:58;15.10;64.00
17495;DHT22;8864;51.970;4.614;2023-03-01T10:55:33;15.10;63.10
17495;DHT22;8864;51.970;4.614;2023-03-01T10:58:16;15.10;62.60
17495;DHT22;8864;51.970;4.614;2023-03-01T11:00:50;15.10;62.20
17495;DHT22;8864;51.970;4.614;2023-03-01T11:03:21;15.10;62.40
17495;DHT22;8864;51.970;4.614;2023-03-01T11:08:43;15.10;62.40
17495;DHT22;8864;51.970;4.614;2023-03-01T11:11:31;15.20;62.60
17495;DHT22;8864;51.970;4.614;2023-03-01T11:14:03;15.20;62.10
17495;DHT22;8864;51.970;4.614;2023-03-01T11:16:35;15.20;61.80
17495;DHT22;8864;51.970;4.614;2023-03-01T11:19:20;15.20;61.80
17495;DHT22;8864;51.970;4.614;2023-03-01T11:22:03;15.20;62.10
17495;DHT22;8864;51.970;4.614;2023-03-01T11:24:38;15.20;61.50
17495;DHT22;8864;51.970;4.614;2023-03-01T11:27:16;15.20;61.40
17495;DHT22;8864;51.970;4.614;2023-03-01T11:29:50;15.10;61.00
17495;DHT22;8864;51.970;4.614;2023-03-01T11:32:22;15.20;60.90
17495;DHT22;8864;51.970;4.614;2023-03-01T11:34:55;15.20;61.10
17495;DHT22;8864;51.970;4.614;2023-03-01T11:37:32;15.10;60.90
17495;DHT22;8864;51.970;4.614;2023-03-01T11:40:10;15.10;60.60
17495;DHT22;8864;51.970;4.614;2023-03-01T11:42:50;15.10;60.40
17495;DHT22;8864;51.970;4.614;2023-03-01T11:45:20;15.20;60.50
17495;DHT22;8864;51.970;4.614;2023-03-01T11:47:55;15.20;60.60
17495;DHT22;8864;51.970;4.614;2023-03-01T11:50:32;15.20;60.60
17495;DHT22;8864;51.970;4.614;2023-03-01T11:53:23;15.20;61.00
17495;DHT22;8864;51.970;4.614;2023-03-01T11:56:02;15.20;60.50
17495;DHT22;8864;51.970;4.614;2023-03-01T11:58:47;15.20;60.00
17495;DHT22;8864;51.970;4.614;2023-03-01T12:01:47;15.20;60.00
17495;DHT22;8864;51.970;4.614;2023-03-01T12:04:48;15.20;60.10
17495;DHT22;8864;51.970;4.614;2023-03-01T12:07:24;15.10;59.80
17495;DHT22;8864;51.970;4.614;2023-03-01T12:10:16;15.20;59.30
17495;DHT22;8864;51.970;4.614;2023-03-01T12:13:10;15.20;59.80
17495;DHT22;8864;51.970;4.614;2023-03-01T12:15:59;15.20;60.30
17495;DHT22;8864;51.970;4.614;2023-03-01T12:18:41;15.20;60.30
17495;DHT22;8864;51.970;4.614;2023-03-01T12:21:21;15.20;60.20
17495;DHT22;8864;51.970;4.614;2023-03-01T12:24:08;15.20;60.70
17495;DHT22;8864;51.970;4.614;2023-03-01T12:26:45;15.30;60.90
17495;DHT22;8864;51.970;4.614;2023-03-01T12:29:25;15.30;60.90
17495;DHT22;8864;51.970;4.614;2023-03-01T12:32:26;15.30;61.30
17495;DHT22;8864;51.970;4.614;2023-03-01T12:35:30;15.30;61.80
17495;DHT22;8864;51.970;4.614;2023-03-01T12:38:08;15.30;61.80
17495;DHT22;8864;51.970;4.614;2023-03-01T12:41:01;15.30;61.60
17495;DHT22;8864;51.970;4.614;2023-03-01T12:43:47;15.30;62.00
17495;DHT22;8864;51.970;4.614;2023-03-01T12:46:28;15.30;61.80
17495;DHT22;8864;51.970;4.614;2023-03-01T12:49:26;15.30;62.10
17495;DHT22;8864;51.970;4.614;2023-03-01T12:51:59;15.30;62.30
17495;DHT22;8864;51.970;4.614;2023-03-01T12:54:36;15.30;62.40
17495;DHT22;8864;51.970;4.614;2023-03-01T12:57:09;15.30;62.60
17495;DHT22;8864;51.970;4.614;2023-03-01T12:59:42;15.30;62.60
17495;DHT22;8864;51.970;4.614;2023-03-01T13:02:19;15.30;62.60
17495;DHT22;8864;51.970;4.614;2023-03-01T13:05:06;15.30;62.70
17495;DHT22;8864;51.970;4.614;2023-03-01T13:07:38;15.30;62.70
17495;DHT22;8864;51.970;4.614;2023-03-01T13:10:20;15.30;62.70
17495;DHT22;8864;51.970;4.614;2023-03-01T13:13:00;15.30;62.90
17495;DHT22;8864;51.970;4.614;2023-03-01T13:15:33;15.30;62.90
17495;DHT22;8864;51.970;4.614;2023-03-01T13:18:30;15.30;63.00
17495;DHT22;8864;51.970;4.614;2023-03-01T13:21:07;15.40;63.20
17495;DHT22;8864;51.970;4.614;2023-03-01T13:23:39;15.40;63.30
17495;DHT22;8864;51.970;4.614;2023-03-01T13:26:16;15.30;63.20
17495;DHT22;8864;51.970;4.614;2023-03-01T13:29:11;15.40;63.40
17495;DHT22;8864;51.970;4.614;2023-03-01T13:32:00;15.40;63.50
17495;DHT22;8864;51.970;4.614;2023-03-01T13:34:53;15.40;63.40
17495;DHT22;8864;51.970;4.614;2023-03-01T13:37:28;15.30;63.50
17495;DHT22;8864;51.970;4.614;2023-03-01T13:40:08;15.40;63.50
17495;DHT22;8864;51.970;4.614;2023-03-01T13:42:56;15.40;63.50
17495;DHT22;8864;51.970;4.614;2023-03-01T13:45:36;15.40;63.60
17495;DHT22;8864;51.970;4.614;2023-03-01T13:48:09;15.50;63.70
17495;DHT22;8864;51.970;4.614;2023-03-01T13:50:48;15.50;63.90
17495;DHT22;8864;51.970;4.614;2023-03-01T13:53:19;15.50;63.60
17495;DHT22;8864;51.970;4.614;2023-03-01T13:55:49;15.50;63.60
17495;DHT22;8864;51.970;4.614;2023-03-01T13:58:24;15.50;63.60
17495;DHT22;8864;51.970;4.614;2023-03-01T14:01:02;15.50;63.60
17495;DHT22;8864;51.970;4.614;2023-03-01T14:03:32;15.50;63.50
17495;DHT22;8864;51.970;4.614;2023-03-01T14:06:05;15.50;63.50
17495;DHT22;8864;51.970;4.614;2023-03-01T14:08:37;15.50;63.50
17495;DHT22;8864;51.970;4.614;2023-03-01T14:14:38;15.50;63.80
17495;DHT22;8864;51.970;4.614;2023-03-01T14:17:28;15.60;63.90
17495;DHT22;8864;51.970;4.614;2023-03-01T14:20:11;15.60;63.90
17495;DHT22;8864;51.970;4.614;2023-03-01T14:22:41;15.60;63.90
17495;DHT22;8864;51.970;4.614;2023-03-01T14:25:19;15.60;64.00
17495;DHT22;8864;51.970;4.614;2023-03-01T14:27:56;15.60;64.10
17495;DHT22;8864;51.970;4.614;2023-03-01T14:30:27;15.60;64.00
17495;DHT22;8864;51.970;4.614;2023-03-01T14:33:00;15.60;64.00
17495;DHT22;8864;51.970;4.614;2023-03-01T14:35:29;15.60;63.90
17495;DHT22;8864;51.970;4.614;2023-03-01T14:38:06;15.60;64.10
17495;DHT22;8864;51.970;4.614;2023-03-01T14:40:39;15.60;64.20
17495;DHT22;8864;51.970;4.614;2023-03-01T14:43:10;15.70;64.30
17495;DHT22;8864;51.970;4.614;2023-03-01T14:45:48;15.70;64.30
17495;DHT22;8864;51.970;4.614;2023-03-01T14:48:19;15.70;64.20
17495;DHT22;8864;51.970;4.614;2023-03-01T14:50:53;15.70;64.50
17495;DHT22;8864;51.970;4.614;2023-03-01T14:53:24;15.70;64.90
17495;DHT22;8864;51.970;4.614;2023-03-01T14:55:55;15.80;64.70
17495;DHT22;8864;51.970;4.614;2023-03-01T14:58:26;15.80;64.50
17495;DHT22;8864;51.970;4.614;2023-03-01T15:00:57;15.90;64.60
17495;DHT22;8864;51.970;4.614;2023-03-01T15:03:40;15.80;64.50
17495;DHT22;8864;51.970;4.614;2023-03-01T15:06:19;15.90;64.40
17495;DHT22;8864;51.970;4.614;2023-03-01T15:08:55;15.90;64.30
17495;DHT22;8864;51.970;4.614;2023-03-01T15:11:25;15.90;64.40
17495;DHT22;8864;51.970;4.614;2023-03-01T15:13:54;15.90;64.40
17495;DHT22;8864;51.970;4.614;2023-03-01T15:16:27;15.90;64.60
17495;DHT22;8864;51.970;4.614;2023-03-01T15:19:07;15.90;64.60
17495;DHT22;8864;51.970;4.614;2023-03-01T15:21:39;15.90;64.50
17495;DHT22;8864;51.970;4.614;2023-03-01T15:24:20;15.90;64.50
17495;DHT22;8864;51.970;4.614;2023-03-01T15:26:56;15.90;64.60
17495;DHT22;8864;51.970;4.614;2023-03-01T15:29:33;15.90;64.70
17495;DHT22;8864;51.970;4.614;2023-03-01T15:32:28;15.90;64.70
17495;DHT22;8864;51.970;4.614;2023-03-01T15:35:42;15.90;64.60
17495;DHT22;8864;51.970;4.614;2023-03-01T15:38:30;15.90;64.60
17495;DHT22;8864;51.970;4.614;2023-03-01T15:40:59;15.90;64.60
17495;DHT22;8864;51.970;4.614;2023-03-01T15:43:43;16.00;64.60
17495;DHT22;8864;51.970;4.614;2023-03-01T15:46:19;15.90;64.50
17495;DHT22;8864;51.970;4.614;2023-03-01T15:49:04;16.00;64.60
17495;DHT22;8864;51.970;4.614;2023-03-01T15:51:35;16.00;64.60
17495;DHT22;8864;51.970;4.614;2023-03-01T15:54:18;16.00;64.60
17495;DHT22;8864;51.970;4.614;2023-03-01T15:56:46;16.00;64.90
17495;DHT22;8864;51.970;4.614;2023-03-01T15:59:19;16.00;64.50
17495;DHT22;8864;51.970;4.614;2023-03-01T16:01:51;16.00;64.60
17495;DHT22;8864;51.970;4.614;2023-03-01T16:04:28;16.10;64.60
17495;DHT22;8864;51.970;4.614;2023-03-01T16:06:55;16.10;64.50
17495;DHT22;8864;51.970;4.614;2023-03-01T16:09:25;16.10;64.40
17495;DHT22;8864;51.970;4.614;2023-03-01T16:11:55;16.10;64.50
17495;DHT22;8864;51.970;4.614;2023-03-01T16:14:27;16.10;64.40
17495;DHT22;8864;51.970;4.614;2023-03-01T16:16:57;16.10;64.40
17495;DHT22;8864;51.970;4.614;2023-03-01T16:19:32;16.10;64.40
17495;DHT22;8864;51.970;4.614;2023-03-01T16:21:58;16.20;64.40
17495;DHT22;8864;51.970;4.614;2023-03-01T16:24:25;16.20;64.30
17495;DHT22;8864;51.970;4.614;2023-03-01T16:27:10;16.20;64.30